Local and Regional Airport Weather



KPVE - Beech River Regional Airport
Distance from station: NW 4mi, 6km
Updated: Sun, Aug-18-2019 3:55am CDT
Mist, Partly cloudy
Mist, Partly cloudy
 Wind from calm
Wind: Calm
Temperature: 68°F , 20°C
Dew Point: 68°F , 20°C
Humidity: 100%
Barometer: 29.94 inHg , 1013.9 hPa
Summary: Mist
Clouds: Partly cloudy
Visibility: 2 1/2 miles , 4 km
Cloud details: Partly cloudy 100 ft
2019/08/18 08:55 KPVE 180855Z AUTO 00000KT 2 1/2SM BR SCT001 20/20 A2994 RMK A01
KSNH - Savannah Hardin Co. Airport
Distance from station: S 34mi, 54km
Updated: Sun, Aug-18-2019 3:55am CDT
Clear
Clear
 Wind from calm
Wind: Calm
Temperature: 68°F , 20°C
Dew Point: 68°F , 20°C
Humidity: 100%
Barometer: 29.94 inHg , 1013.9 hPa
Clouds: Clear
Visibility: 7 miles , 11 km
2019/08/18 08:55 KSNH 180855Z AUTO 00000KT 7SM CLR 20/20 A2994 RMK A01
 
KMKL - McKellar-Sipes Regional Airport
Distance from station: W 44mi, 72km
Updated: Sun, Aug-18-2019 3:53am CDT
Clear
Clear
 Wind from calm
Wind: Calm
Temperature: 70°F , 21°C
Dew Point: 68°F , 20°C
Humidity: 94%
Barometer: 29.94 inHg , 1013.9 hPa
Clouds: Clear
Visibility: 7 miles , 11 km
2019/08/18 08:53 KMKL 180853Z AUTO 00000KT 7SM CLR 21/20 A2994 RMK AO2 SLP132 T02110200 56006
KMSL - NW Alabama Regional Airport
Distance from station: SE 78mi, 126km
Updated: Sun, Aug-18-2019 3:53am CDT
Clear
Clear
 Wind from calm
Wind: Calm
Temperature: 72°F , 22°C
Dew Point: 70°F , 21°C
Humidity: 94%
Barometer: 29.95 inHg , 1014.2 hPa
Clouds: Clear
Visibility: 10 miles , 16 km
2019/08/18 08:53 KMSL 180853Z AUTO 00000KT 10SM CLR 22/21 A2995 RMK AO2 SLP133 T02220206 56007
 
KBNA - Nashville International Airport
Distance from station: NE 97mi, 157km
Updated: Sun, Aug-18-2019 3:53am CDT
Clear
Clear
 Wind from calm
Wind: Calm
Temperature: 72°F , 22°C
Dew Point: 68°F , 20°C
Humidity: 88%
Barometer: 29.96 inHg , 1014.6 hPa
Clouds: Clear
Visibility: 10 miles , 16 km
2019/08/18 08:53 KBNA 180853Z 00000KT 10SM CLR 22/20 A2996 RMK AO2 SLP136 T02170200 57007
KMEM - Memphis International Airport
Distance from station: W 108mi, 173km
Updated: Sun, Aug-18-2019 3:54am CDT
Clear
Clear
 Wind from S
Wind: S 6 mph , 9 km/h
Temperature: 75°F , 24°C
Dew Point: 72°F , 22°C
Humidity: 89%
Barometer: 29.92 inHg , 1013.2 hPa
Clouds: Clear
Visibility: 10 miles , 16 km
2019/08/18 08:54 KMEM 180854Z 17005KT 10SM CLR 24/22 A2992 RMK AO2 SLP125 T02440217 55005
 
KTYS - Knoxville McGhee Tyson Airport
Distance from station: E 234mi, 377km
Updated: Sun, Aug-18-2019 3:53am CDT
Clear
Clear
 Wind from N
Wind: N 3 mph , 6 km/h
Temperature: 70°F , 21°C
Dew Point: 66°F , 19°C
Humidity: 88%
Barometer: 29.99 inHg , 1015.6 hPa
Clouds: Clear
Visibility: 10 miles , 16 km
2019/08/18 08:53 KTYS 180853Z 01003KT 10SM CLR 21/19 A2999 RMK AO2 SLP142 T02110189 56003
KSTL - St. Louis International Airport
Distance from station: NW 247mi, 398km
Updated: Sun, Aug-18-2019 3:51am CDT
Mostly cloudy
Mostly cloudy
 Wind from SSW
Wind: SSW 8 mph , 13 km/h
Temperature: 79°F , 26°C
Dew Point: 70°F , 21°C
Humidity: 74%
Barometer: 29.85 inHg , 1010.8 hPa
Clouds: Mostly cloudy
Visibility: 10 miles , 16 km
Cloud details: Mostly cloudy 25000 ft
2019/08/18 08:51 KSTL 180851Z 20007KT 10SM BKN250 26/21 A2985 RMK AO2 SLP092 T02610211 56013 $

Refresh Page for latest data.